• Join FlightAware (Why Join?)
  • Login
  • US Flag 
11:37AM EDT


 

Airport Tracker/Info


-or-


 

Live Flight TrackerFlight Track Log ✈ UCA597 ✈ 15-Sep-2013 ✈ KIAD - KBGM

Flight Track Log - Related Links

Times and Time Zones

All times are in EDT time to prevent confusion due to time zone crossing. See the UCA597 flight status page for this flight to view local times or setup timezone preferences in your user account.

Time Position Orientation Groundspeed Altitude Reporting Facility
EDT Latitude Longitude Course Direction KTS MPH feet Rate Location/Type
06:05PM 38.9667 -77.5333 North 168 193 2,300  Level Potomac TRACON
06:06PM 38.9833 -77.5833 293° West 178 205 3,500 1,260 Climbing Potomac TRACON
06:07PM 39.0000 -77.6500 288° West 186 214 4,800 1,380 Climbing Potomac TRACON
06:08PM 39.0333 -77.7000 311° West 196 226 6,400 1,260 Climbing Potomac TRACON
06:09PM 39.0833 -77.7167 345° North 202 232 7,500 1,140 Climbing Potomac TRACON
06:10PM 39.1333 -77.7333 346° North 204 235 8,600 1,140 Climbing Potomac TRACON
06:11PM 39.4693 -77.4500 North  Level FlightAware Approximate
06:12PM 39.1922 -77.7528 346° North 209 241 9,900  Level Washington Center
06:13PM 39.2467 -77.7303 18° North 200 230 11,000 1,080 Climbing Washington Center
06:13PM 39.3017 -77.6889 30° Northeast 205 236 12,100 1,080 Climbing Washington Center
06:14PM 39.3628 -77.6478 27° Northeast 211 243 13,200 1,080 Climbing Washington Center
06:15PM 39.4156 -77.6117 28° Northeast 220 253 14,300 1,020 Climbing Washington Center
06:17PM 39.4725 -77.5731 28° Northeast 225 259 15,300 900 Climbing Washington Center
06:17PM 39.5292 -77.5314 30° Northeast 225 259 16,200 900 Climbing Washington Center
06:19PM 39.6167 -77.4711 28° Northeast 227 261 17,700 780 Climbing New York Center
06:20PM 39.6825 -77.4506 14° North 210 242 18,400 600 Climbing New York Center
06:21PM 39.7367 -77.4531 358° North 210 242 19,000 300 Climbing New York Center
06:22PM 39.8097 -77.4517 North 228 262 19,000  Level New York Center
06:23PM 39.8722 -77.4497 North 241 277 19,000  Level New York Center
06:24PM 39.9494 -77.4517 359° North 254 292 19,000  Level New York Center
06:25PM 40.0183 -77.4472 North 254 292 19,000  Level New York Center
06:26PM 40.0994 -77.4497 359° North 259 298 19,000  Level New York Center
06:27PM 40.1664 -77.4481 North 259 298 19,000  Level New York Center
06:28PM 40.2500 -77.4450 North 265 305 19,000  Level New York Center
06:29PM 40.3167 -77.4433 North 265 305 19,000  Level New York Center
06:30PM 40.3981 -77.4458 359° North 270 311 19,000  Level New York Center
06:31PM 40.4647 -77.4439 North 270 311 19,000  Level New York Center
06:32PM 40.5483 -77.4411 North 270 311 19,000 -300 Level New York Center
06:33PM 40.6192 -77.4425 359° North 278 320 18,400 -600 Descending New York Center
06:34PM 40.7025 -77.4397 North 284 327 17,800 -660 Descending New York Center
06:35PM 40.7850 -77.4231 North 292 336 17,100 -780 Descending New York Center
06:36PM 40.8589 -77.3672 30° Northeast 292 336 16,300 -960 Descending New York Center
06:37PM 40.9275 -77.2969 38° Northeast 297 342 15,200 -720 Descending New York Center
06:38PM 40.9956 -77.2319 36° Northeast 302 348 14,900 -180 Descending New York Center
06:39PM 41.0661 -77.1614 37° Northeast 296 341 14,900  Level New York Center
06:40PM 41.1319 -77.0961 37° Northeast 296 341 14,900  Level New York Center
06:41PM 41.1961 -77.0275 39° Northeast 290 334 14,900  Level New York Center
06:42PM 41.2619 -76.9647 36° Northeast 290 334 14,900  Level New York Center
06:43PM 41.3258 -76.8986 38° Northeast 290 334 14,900  Level New York Center
06:44PM 41.3917 -76.8300 38° Northeast 290 334 14,900  Level New York Center
06:45PM 41.4556 -76.7639 38° Northeast 290 334 14,900  Level New York Center
06:46PM 41.5214 -76.6947 38° Northeast 290 334 14,900  Level New York Center
06:47PM 41.5853 -76.6283 38° Northeast 290 334 14,900 -300 Level New York Center
06:48PM 41.6467 -76.5672 37° Northeast 295 339 14,300 -780 Descending New York Center
06:49PM 41.7125 -76.4978 38° Northeast 295 339 13,400 -1,020 Descending New York Center
06:50PM 41.7911 -76.4211 36° Northeast 305 351 12,300 -1,020 Descending New York Center
06:51PM 41.8547 -76.3486 40° Northeast 305 351 11,400 -1,200 Descending New York Center
06:52PM 41.9183 -76.2814 38° Northeast 299 344 9,900 -1,500 Descending New York Center
06:53PM 41.9728 -76.2275 36° Northeast 283 326 8,500 -1,500 Descending New York Center
06:54PM 42.0339 -76.1653 37° Northeast 273 314 7,000 -1,620 Descending New York Center
06:55PM 42.0975 -76.0978 38° Northeast 268 308 5,300 -1,560 Descending New York Center
06:56PM 42.1517 -76.0464 35° Northeast 257 296 3,900 -1,080 Descending New York Center
06:57PM 42.1961 -76.0331 13° North 177 204 3,200 -600 Descending New York Center
06:58PM 42.2333 -76.0389 353° North 154 177 2,800 -600 Descending New York Center
06:59PM 42.2328 -76.0025 91° East 101 116 2,100 3,060 Descending New York Center
07:00PM 42.2631 -75.9769 32° Northeast 101 116 9,000 3,420 Climbing New York Center
07:01PM 42.2850 -75.9506 42° Northeast 101 116 9,000  Level New York Center
07:02PM 42.3069 -75.9242 42° Northeast 101 116 9,000  Level New York Center
07:04PM 42.2211 -75.9583 196° South  Level FlightAware Approximate
07:11PM 42.2000 -75.9667 North  Level FlightAware Approximate
07:12PM 42.2084 -75.9796 North  Level Estimated
07:13PM 42.2084 -75.9796 North  Level Estimated
07:14PM 42.2084 -75.9796 North  Level Estimated
07:15PM 42.2084 -75.9796 North  Level Estimated
07:16PM 42.2084 -75.9796 North  Level Estimated
07:17PM 42.2084 -75.9796 North  Level Estimated
07:18PM 42.2084 -75.9796 North  Level Estimated
07:19PM 42.2084 -75.9796 North  Level Estimated